createdAt,value
2018-12-26T00:00:18.023Z,5.80
2018-12-26T00:02:46.842Z,5.80
2018-12-26T00:05:13.677Z,5.80
2018-12-26T00:07:40.618Z,5.80
2018-12-26T00:10:07.630Z,5.70
2018-12-26T00:12:34.425Z,5.70
2018-12-26T00:15:01.374Z,5.70
2018-12-26T00:17:28.176Z,5.70
2018-12-26T00:19:55.104Z,5.80
2018-12-26T00:22:21.993Z,5.80
2018-12-26T00:24:48.773Z,5.70
2018-12-26T00:27:15.587Z,5.70
2018-12-26T00:29:42.437Z,5.70
2018-12-26T00:32:09.245Z,5.80
2018-12-26T00:34:36.058Z,5.80
2018-12-26T00:37:02.911Z,5.80
2018-12-26T00:39:29.710Z,5.70
2018-12-26T00:41:56.621Z,5.70
2018-12-26T00:44:23.470Z,5.70
2018-12-26T00:46:50.289Z,5.70
2018-12-26T00:49:17.109Z,5.70
2018-12-26T00:51:43.942Z,5.60
2018-12-26T00:54:10.865Z,5.60
2018-12-26T00:56:37.767Z,5.60
2018-12-26T00:59:04.601Z,5.60
2018-12-26T01:01:31.517Z,5.60
2018-12-26T01:03:58.307Z,5.60
2018-12-26T01:06:25.158Z,5.60
2018-12-26T01:08:51.968Z,5.70
2018-12-26T01:11:18.768Z,5.70
2018-12-26T01:13:45.605Z,5.70
2018-12-26T01:16:12.412Z,5.70
2018-12-26T01:18:39.215Z,5.70
2018-12-26T01:21:06.162Z,5.70
2018-12-26T01:23:33.005Z,5.70
2018-12-26T01:25:59.913Z,5.60
2018-12-26T01:28:26.878Z,5.70
2018-12-26T01:30:53.688Z,5.70
2018-12-26T01:33:20.511Z,5.70
2018-12-26T01:35:47.486Z,5.70
2018-12-26T01:38:14.287Z,5.70
2018-12-26T01:40:41.100Z,5.70
2018-12-26T01:43:08.026Z,5.70
2018-12-26T01:45:34.936Z,5.70
2018-12-26T01:48:01.832Z,5.70
2018-12-26T01:50:28.657Z,5.60
2018-12-26T01:52:55.510Z,5.70
2018-12-26T01:55:22.305Z,5.70
2018-12-26T01:57:49.169Z,5.70
2018-12-26T02:00:15.969Z,5.70
2018-12-26T02:02:42.774Z,5.70
2018-12-26T02:05:09.819Z,5.70
2018-12-26T02:07:36.684Z,5.70
2018-12-26T02:10:04.038Z,5.60
2018-12-26T02:12:30.875Z,5.70
2018-12-26T02:14:57.698Z,5.70
2018-12-26T02:17:24.532Z,5.60
2018-12-26T02:19:51.460Z,5.60
2018-12-26T02:22:18.249Z,5.70
2018-12-26T02:24:45.055Z,5.70
2018-12-26T02:27:12.093Z,5.70
2018-12-26T02:29:45.075Z,5.70
2018-12-26T02:32:11.899Z,5.70
2018-12-26T02:34:38.834Z,5.60
2018-12-26T02:37:05.757Z,5.60
2018-12-26T02:39:32.660Z,5.60
2018-12-26T02:42:01.222Z,5.60
2018-12-26T02:44:28.020Z,5.60
2018-12-26T02:46:54.816Z,5.60
2018-12-26T02:49:21.647Z,5.60
2018-12-26T02:51:48.549Z,5.50
2018-12-26T02:54:15.345Z,5.50
2018-12-26T02:56:47.742Z,5.50
2018-12-26T02:59:11.251Z,5.50
2018-12-26T03:01:38.164Z,5.50
2018-12-26T03:04:05.218Z,5.50
2018-12-26T03:06:32.140Z,5.50
2018-12-26T03:08:58.934Z,5.50
2018-12-26T03:11:25.773Z,5.50
2018-12-26T03:13:52.885Z,5.50
2018-12-26T03:16:19.782Z,5.50
2018-12-26T03:18:46.616Z,5.50
2018-12-26T03:21:13.507Z,5.50
2018-12-26T03:23:40.290Z,5.50
2018-12-26T03:26:07.111Z,5.50
2018-12-26T03:28:34.046Z,5.50
2018-12-26T03:31:00.876Z,5.50
2018-12-26T03:33:27.934Z,5.50
2018-12-26T03:35:54.834Z,5.50
2018-12-26T03:38:21.736Z,5.50
2018-12-26T03:40:48.963Z,5.50
2018-12-26T03:43:15.976Z,5.40
2018-12-26T03:45:43.285Z,5.40
2018-12-26T03:48:10.827Z,5.40
2018-12-26T03:50:37.921Z,5.40
2018-12-26T03:53:04.934Z,5.30
2018-12-26T03:55:32.697Z,5.40
2018-12-26T03:57:59.790Z,5.40
2018-12-26T04:00:26.687Z,5.40
2018-12-26T04:02:53.633Z,5.40
2018-12-26T04:05:20.633Z,5.40
2018-12-26T04:07:47.534Z,5.40
2018-12-26T04:10:14.486Z,5.40
2018-12-26T04:12:41.382Z,5.40
2018-12-26T04:15:08.402Z,5.40
2018-12-26T04:17:35.530Z,5.40
2018-12-26T04:20:03.003Z,5.40
2018-12-26T04:22:29.910Z,5.40
2018-12-26T04:24:57.167Z,5.30
2018-12-26T04:27:24.066Z,5.30
2018-12-26T04:29:50.985Z,5.30
2018-12-26T04:32:17.940Z,5.40
2018-12-26T04:34:44.797Z,5.40
2018-12-26T04:37:11.638Z,5.40
2018-12-26T04:39:38.462Z,5.40
2018-12-26T04:42:05.262Z,5.40
2018-12-26T04:44:32.160Z,5.40
2018-12-26T04:46:58.990Z,5.40
2018-12-26T04:49:25.921Z,5.40
2018-12-26T04:51:52.766Z,5.30
2018-12-26T04:54:19.614Z,5.40
2018-12-26T04:56:46.449Z,5.40
2018-12-26T04:59:13.249Z,5.40
2018-12-26T05:01:42.076Z,5.40
2018-12-26T05:04:08.830Z,5.30
2018-12-26T05:06:35.830Z,5.30
2018-12-26T05:09:05.537Z,5.30
2018-12-26T05:11:32.448Z,5.30
2018-12-26T05:13:59.444Z,5.30
2018-12-26T05:16:26.489Z,5.30
2018-12-26T05:18:53.402Z,5.30
2018-12-26T05:21:20.502Z,5.30
2018-12-26T05:23:47.535Z,5.30
2018-12-26T05:26:14.527Z,5.30
2018-12-26T05:28:41.335Z,5.30
2018-12-26T05:31:10.190Z,5.20
2018-12-26T05:33:37.269Z,5.20
2018-12-26T05:36:04.170Z,5.20
2018-12-26T05:38:31.013Z,5.20
2018-12-26T05:40:57.830Z,5.20
2018-12-26T05:43:24.758Z,5.20
2018-12-26T05:45:51.695Z,5.20
2018-12-26T05:48:18.573Z,5.20
2018-12-26T05:50:45.379Z,5.20
2018-12-26T05:53:12.230Z,5.20
2018-12-26T05:55:39.014Z,5.20
2018-12-26T05:58:05.841Z,5.20
2018-12-26T06:00:32.741Z,5.20
2018-12-26T06:02:59.546Z,5.20
2018-12-26T06:05:26.346Z,5.20
2018-12-26T06:07:53.190Z,5.10
2018-12-26T06:10:20.004Z,5.20
2018-12-26T06:12:46.813Z,5.20
2018-12-26T06:15:13.646Z,5.20
2018-12-26T06:17:40.436Z,5.20
2018-12-26T06:20:07.263Z,5.10
2018-12-26T06:22:34.110Z,5.20
2018-12-26T06:25:00.906Z,5.20
2018-12-26T06:27:27.722Z,5.20
2018-12-26T06:29:54.679Z,5.20
2018-12-26T06:32:21.492Z,5.20
2018-12-26T06:34:48.398Z,5.10
2018-12-26T06:37:15.356Z,5.20
2018-12-26T06:39:42.158Z,5.20
2018-12-26T06:42:08.954Z,5.20
2018-12-26T06:44:35.803Z,5.20
2018-12-26T06:47:02.703Z,5.20
2018-12-26T06:49:29.503Z,5.10
2018-12-26T06:51:56.337Z,5.20
2018-12-26T06:54:23.259Z,5.20
2018-12-26T06:56:50.042Z,5.20
2018-12-26T06:59:16.870Z,5.20
2018-12-26T07:01:43.682Z,5.20
2018-12-26T07:04:10.590Z,5.20
2018-12-26T07:06:39.503Z,5.20
2018-12-26T07:09:07.622Z,5.20
2018-12-26T07:11:34.439Z,5.20
2018-12-26T07:14:01.297Z,5.20
2018-12-26T07:16:28.210Z,5.20
2018-12-26T07:18:55.006Z,5.20
2018-12-26T07:21:21.828Z,5.20
2018-12-26T07:23:48.643Z,5.10
2018-12-26T07:26:15.429Z,5.10
2018-12-26T07:28:42.246Z,5.20
2018-12-26T07:31:09.027Z,5.20
2018-12-26T07:33:35.833Z,5.20
2018-12-26T07:36:02.931Z,5.20
2018-12-26T07:38:29.731Z,5.20
2018-12-26T07:40:56.649Z,5.10
2018-12-26T07:43:23.518Z,5.10
2018-12-26T07:45:50.302Z,5.10
2018-12-26T07:48:17.090Z,5.10
2018-12-26T07:50:43.939Z,5.10
2018-12-26T07:53:10.843Z,5.10
2018-12-26T07:55:37.638Z,5.00
2018-12-26T07:58:04.476Z,5.10
2018-12-26T08:00:31.311Z,5.00
2018-12-26T08:02:58.193Z,5.10
2018-12-26T08:05:25.019Z,5.10
2018-12-26T08:07:51.805Z,5.10
2018-12-26T08:10:18.653Z,5.10
2018-12-26T08:12:45.478Z,5.00
2018-12-26T08:15:12.369Z,5.00
2018-12-26T08:17:39.174Z,5.00
2018-12-26T08:20:06.630Z,5.00
2018-12-26T08:22:33.743Z,5.00
2018-12-26T08:25:00.531Z,5.00
2018-12-26T08:27:27.454Z,5.00
2018-12-26T08:29:54.271Z,5.00
2018-12-26T08:32:21.075Z,5.00
2018-12-26T08:34:47.924Z,4.90
2018-12-26T08:37:14.731Z,4.90
2018-12-26T08:39:41.538Z,5.00
2018-12-26T08:42:08.356Z,4.90
2018-12-26T08:44:35.155Z,4.90
2018-12-26T08:47:01.992Z,4.90
2018-12-26T08:49:28.937Z,4.90
2018-12-26T08:51:55.738Z,4.90
2018-12-26T08:54:22.528Z,4.90
2018-12-26T08:56:49.353Z,4.90
2018-12-26T08:59:16.259Z,4.90
2018-12-26T09:01:43.161Z,4.90
2018-12-26T09:04:10.972Z,4.90
2018-12-26T09:06:37.985Z,4.90
2018-12-26T09:09:05.475Z,4.90
2018-12-26T09:11:32.432Z,4.90
2018-12-26T09:13:59.247Z,5.00
2018-12-26T09:16:26.117Z,5.00
2018-12-26T09:18:52.966Z,5.00
2018-12-26T09:21:19.866Z,5.00
2018-12-26T09:23:46.810Z,5.00
2018-12-26T09:26:13.661Z,5.00
2018-12-26T09:28:43.984Z,5.10
2018-12-26T09:31:09.149Z,5.00
2018-12-26T09:33:35.986Z,5.10
2018-12-26T09:36:02.880Z,5.10
2018-12-26T09:38:29.783Z,5.10
2018-12-26T09:40:56.622Z,5.10
2018-12-26T09:43:23.413Z,5.10
2018-12-26T09:45:50.212Z,5.10
2018-12-26T09:48:17.035Z,5.10
2018-12-26T09:50:43.841Z,5.10
2018-12-26T09:53:10.664Z,5.10
2018-12-26T09:55:37.607Z,5.10
2018-12-26T09:58:04.407Z,5.10
2018-12-26T10:00:31.284Z,5.20
2018-12-26T10:02:58.119Z,5.20
2018-12-26T10:05:24.923Z,5.10
2018-12-26T10:07:51.718Z,5.20
2018-12-26T10:10:18.541Z,5.20
2018-12-26T10:12:45.409Z,5.20
2018-12-26T10:15:12.230Z,5.20
2018-12-26T10:17:39.062Z,5.30
2018-12-26T10:20:05.999Z,5.20
2018-12-26T10:22:32.770Z,5.20
2018-12-26T10:24:59.594Z,5.30
2018-12-26T10:27:26.426Z,5.30
2018-12-26T10:29:53.249Z,5.20
2018-12-26T10:32:20.098Z,5.30
2018-12-26T10:34:46.905Z,5.30
2018-12-26T10:37:13.849Z,5.30
2018-12-26T10:39:40.690Z,5.40
2018-12-26T10:42:07.493Z,5.40
2018-12-26T10:44:34.283Z,5.30
2018-12-26T10:47:01.183Z,5.40
2018-12-26T10:49:28.084Z,5.40
2018-12-26T10:51:54.906Z,5.40
2018-12-26T10:54:21.738Z,5.40
2018-12-26T10:56:48.527Z,5.40
2018-12-26T10:59:15.353Z,5.40
2018-12-26T11:01:42.301Z,5.40
2018-12-26T11:04:09.109Z,5.40
2018-12-26T11:06:35.953Z,5.40
2018-12-26T11:09:05.234Z,5.50
2018-12-26T11:11:32.052Z,5.50
2018-12-26T11:13:58.946Z,5.60
2018-12-26T11:16:25.902Z,5.50
2018-12-26T11:18:53.313Z,5.60
2018-12-26T11:21:20.201Z,5.50
2018-12-26T11:23:47.045Z,5.50
2018-12-26T11:26:13.834Z,5.60
2018-12-26T11:28:40.835Z,5.60
2018-12-26T11:31:07.711Z,5.50
2018-12-26T11:33:34.516Z,5.60
2018-12-26T11:36:01.312Z,5.60
2018-12-26T11:38:28.354Z,5.60
2018-12-26T11:40:55.248Z,5.60
2018-12-26T11:43:22.266Z,5.70
2018-12-26T11:45:49.128Z,5.60
2018-12-26T11:48:16.027Z,5.70
2018-12-26T11:50:42.858Z,5.60
2018-12-26T11:53:09.694Z,5.60
2018-12-26T11:55:36.635Z,5.60
2018-12-26T11:58:03.542Z,5.70
2018-12-26T12:00:30.377Z,5.70
2018-12-26T12:02:57.278Z,5.80
2018-12-26T12:05:24.258Z,5.80
2018-12-26T12:07:51.328Z,5.80
2018-12-26T12:10:18.240Z,5.80
2018-12-26T12:12:45.154Z,5.70
2018-12-26T12:15:12.209Z,5.70
2018-12-26T12:17:39.020Z,5.70
2018-12-26T12:20:07.926Z,5.70
2018-12-26T12:22:34.781Z,5.70
2018-12-26T12:25:01.581Z,5.70
2018-12-26T12:27:28.382Z,5.70
2018-12-26T12:29:55.228Z,5.70
2018-12-26T12:32:22.123Z,5.70
2018-12-26T12:34:49.038Z,5.80
2018-12-26T12:37:15.971Z,5.80
2018-12-26T12:39:42.965Z,5.80
2018-12-26T12:42:09.969Z,5.80
2018-12-26T12:44:39.940Z,5.90
2018-12-26T12:47:07.161Z,5.90
2018-12-26T12:49:34.149Z,5.90
2018-12-26T12:52:01.136Z,5.90
2018-12-26T12:54:27.917Z,5.90
2018-12-26T12:56:54.917Z,5.90
2018-12-26T12:59:21.862Z,5.90
2018-12-26T13:01:48.868Z,5.90
2018-12-26T13:04:15.854Z,5.90
2018-12-26T13:06:42.702Z,5.90
2018-12-26T13:09:09.511Z,5.90
2018-12-26T13:11:36.359Z,5.90
2018-12-26T13:14:03.414Z,5.90
2018-12-26T13:16:30.194Z,6.00
2018-12-26T13:18:57.142Z,5.90
2018-12-26T13:21:24.090Z,6.00
2018-12-26T13:23:50.897Z,6.00
2018-12-26T13:26:17.702Z,6.00
2018-12-26T13:28:44.533Z,6.00
2018-12-26T13:31:11.343Z,5.90
2018-12-26T13:33:38.129Z,5.90
2018-12-26T13:36:04.978Z,5.90
2018-12-26T13:38:31.791Z,5.90
2018-12-26T13:40:58.598Z,5.90
2018-12-26T13:43:25.425Z,5.90
2018-12-26T13:45:52.218Z,5.80
2018-12-26T13:48:19.213Z,5.80
2018-12-26T13:50:46.043Z,5.80
2018-12-26T13:53:12.851Z,5.80
2018-12-26T13:55:39.658Z,5.80
2018-12-26T13:58:06.633Z,5.80
2018-12-26T14:00:33.443Z,5.70
2018-12-26T14:03:00.243Z,5.80
2018-12-26T14:05:27.090Z,5.80
2018-12-26T14:07:53.881Z,5.80
2018-12-26T14:10:20.790Z,5.80
2018-12-26T14:12:47.650Z,5.80
2018-12-26T14:15:14.643Z,5.80
2018-12-26T14:17:41.430Z,5.80
2018-12-26T14:20:08.457Z,5.80
2018-12-26T14:22:35.334Z,5.80
2018-12-26T14:25:02.251Z,5.80
2018-12-26T14:27:29.610Z,5.80
2018-12-26T14:29:56.803Z,5.80
2018-12-26T14:32:23.606Z,5.80
2018-12-26T14:34:50.456Z,5.80
2018-12-26T14:37:17.507Z,5.80
2018-12-26T14:39:44.296Z,5.70
2018-12-26T14:42:11.154Z,5.70
2018-12-26T14:44:37.954Z,5.70
2018-12-26T14:47:04.754Z,5.80
2018-12-26T14:49:31.577Z,5.80
2018-12-26T14:51:58.593Z,5.80
2018-12-26T14:54:25.387Z,5.80
2018-12-26T14:56:52.335Z,5.80
2018-12-26T14:59:19.235Z,5.80
2018-12-26T15:01:46.054Z,5.80
2018-12-26T15:04:12.897Z,5.80
2018-12-26T15:06:39.703Z,5.80
2018-12-26T15:09:07.043Z,5.80
2018-12-26T15:11:33.987Z,5.90
2018-12-26T15:14:00.891Z,5.90
2018-12-26T15:16:27.695Z,5.90
2018-12-26T15:18:56.445Z,5.90
2018-12-26T15:21:23.318Z,5.90
2018-12-26T15:23:50.231Z,5.90
2018-12-26T15:26:17.074Z,5.90
2018-12-26T15:28:43.895Z,5.90
2018-12-26T15:31:10.694Z,5.80
2018-12-26T15:33:37.881Z,5.80
2018-12-26T15:36:04.666Z,5.80
2018-12-26T15:38:31.459Z,5.80
2018-12-26T15:40:58.405Z,5.80
2018-12-26T15:43:25.189Z,5.80
2018-12-26T15:45:51.986Z,5.80
2018-12-26T15:48:18.980Z,5.80
2018-12-26T15:50:45.773Z,5.80
2018-12-26T15:53:12.586Z,5.80
2018-12-26T15:55:39.613Z,5.80
2018-12-26T15:58:09.694Z,5.80
2018-12-26T16:00:37.502Z,5.80
2018-12-26T16:03:06.501Z,5.80
2018-12-26T16:05:33.503Z,5.80
2018-12-26T16:08:00.413Z,5.80
2018-12-26T16:10:27.246Z,5.80
2018-12-26T16:12:54.254Z,5.80
2018-12-26T16:15:21.193Z,5.80
2018-12-26T16:17:48.007Z,5.80
2018-12-26T16:20:14.802Z,5.80
2018-12-26T16:22:41.593Z,5.90
2018-12-26T16:25:08.605Z,5.80
2018-12-26T16:27:35.495Z,5.90
2018-12-26T16:30:02.765Z,5.90
2018-12-26T16:32:29.583Z,5.90
2018-12-26T16:34:56.471Z,5.90
2018-12-26T16:37:23.401Z,5.90
2018-12-26T16:39:50.260Z,5.90
2018-12-26T16:42:17.119Z,6.00
2018-12-26T16:44:43.990Z,6.00
2018-12-26T16:47:10.906Z,6.00
2018-12-26T16:49:37.846Z,6.00
2018-12-26T16:52:04.746Z,6.00
2018-12-26T16:54:31.565Z,6.00
2018-12-26T16:56:58.371Z,6.00
2018-12-26T16:59:25.371Z,6.00
2018-12-26T17:01:52.342Z,6.00
2018-12-26T17:04:19.142Z,6.10
2018-12-26T17:06:46.033Z,6.00
2018-12-26T17:09:13.743Z,6.10
2018-12-26T17:11:40.657Z,6.10
2018-12-26T17:14:07.475Z,6.10
2018-12-26T17:16:34.312Z,6.10
2018-12-26T17:19:01.342Z,6.10
2018-12-26T17:21:28.160Z,6.10
2018-12-26T17:23:55.003Z,6.10
2018-12-26T17:26:21.803Z,6.10
2018-12-26T17:28:48.698Z,6.10
2018-12-26T17:31:15.559Z,6.10
2018-12-26T17:33:42.358Z,6.10
2018-12-26T17:36:09.442Z,6.10
2018-12-26T17:38:36.325Z,6.10
2018-12-26T17:41:03.395Z,6.20
2018-12-26T17:43:30.210Z,6.20
2018-12-26T17:45:57.633Z,6.20
2018-12-26T17:48:24.640Z,6.20
2018-12-26T17:50:51.574Z,6.20
2018-12-26T17:53:29.401Z,6.20
2018-12-26T17:56:30.298Z,6.20
2018-12-26T17:59:29.749Z,6.10
2018-12-26T18:02:11.064Z,6.10
2018-12-26T18:04:37.918Z,6.10
2018-12-26T18:07:04.830Z,6.10
2018-12-26T18:09:31.731Z,6.10
2018-12-26T18:12:11.183Z,6.10
2018-12-26T18:14:27.408Z,6.10
2018-12-26T18:16:54.195Z,6.10
2018-12-26T18:19:21.180Z,6.10
2018-12-26T18:21:47.970Z,6.10
2018-12-26T18:24:14.799Z,6.10
2018-12-26T18:26:41.745Z,6.10
2018-12-26T18:29:08.655Z,6.10
2018-12-26T18:31:36.901Z,6.10
2018-12-26T18:34:04.197Z,6.10
2018-12-26T18:36:31.014Z,6.00
2018-12-26T18:38:57.827Z,6.00
2018-12-26T18:41:24.726Z,6.10
2018-12-26T18:43:51.555Z,6.10
2018-12-26T18:46:18.610Z,6.10
2018-12-26T18:48:45.454Z,6.10
2018-12-26T18:51:12.249Z,6.10
2018-12-26T18:53:39.072Z,6.10
2018-12-26T18:56:06.012Z,6.10
2018-12-26T18:58:32.816Z,6.10
2018-12-26T19:00:59.619Z,6.10
2018-12-26T19:03:26.557Z,6.10
2018-12-26T19:05:53.494Z,6.10
2018-12-26T19:08:20.302Z,6.10
2018-12-26T19:10:47.145Z,6.20
2018-12-26T19:13:13.958Z,6.20
2018-12-26T19:15:40.790Z,6.20
2018-12-26T19:18:07.706Z,6.20
2018-12-26T19:20:34.617Z,6.20
2018-12-26T19:23:01.414Z,6.20
2018-12-26T19:25:28.238Z,6.20
2018-12-26T19:27:55.078Z,6.20
2018-12-26T19:30:22.380Z,6.30
2018-12-26T19:32:49.406Z,6.30
2018-12-26T19:35:16.205Z,6.30
2018-12-26T19:37:43.118Z,6.30
2018-12-26T19:40:10.200Z,6.30
2018-12-26T19:42:37.426Z,6.30
2018-12-26T19:45:05.374Z,6.30
2018-12-26T19:47:32.265Z,6.30
2018-12-26T19:50:04.825Z,6.30
2018-12-26T19:52:27.898Z,6.30
2018-12-26T19:54:54.758Z,6.30
2018-12-26T19:57:21.565Z,6.30
2018-12-26T19:59:48.582Z,6.40
2018-12-26T20:02:15.426Z,6.40
2018-12-26T20:04:42.221Z,6.50
2018-12-26T20:07:09.033Z,6.50
2018-12-26T20:09:35.886Z,6.50
2018-12-26T20:12:06.236Z,6.60
2018-12-26T20:14:33.027Z,6.60
2018-12-26T20:16:59.970Z,6.60
2018-12-26T20:19:26.914Z,6.70
2018-12-26T20:21:53.724Z,6.70
2018-12-26T20:24:20.610Z,6.80
2018-12-26T20:26:47.418Z,6.80
2018-12-26T20:29:14.313Z,6.90
2018-12-26T20:31:42.038Z,7.00
2018-12-26T20:34:08.838Z,7.10
2018-12-26T20:36:35.634Z,7.10
2018-12-26T20:39:04.486Z,7.10
2018-12-26T20:41:31.304Z,7.10
2018-12-26T20:43:58.108Z,7.20
2018-12-26T20:46:25.151Z,7.20
2018-12-26T20:48:52.054Z,7.20
2018-12-26T20:51:18.982Z,7.20
2018-12-26T20:53:45.857Z,7.20
2018-12-26T20:56:12.669Z,7.20
2018-12-26T20:58:39.477Z,7.20
2018-12-26T21:01:06.399Z,7.30
2018-12-26T21:03:33.322Z,7.20
2018-12-26T21:06:00.118Z,7.30
2018-12-26T21:08:26.942Z,7.20
2018-12-26T21:10:53.790Z,7.30
2018-12-26T21:13:20.594Z,7.30
2018-12-26T21:15:47.442Z,7.30
2018-12-26T21:18:14.243Z,7.20
2018-12-26T21:20:41.055Z,7.30
2018-12-26T21:23:08.018Z,7.30
2018-12-26T21:25:35.031Z,7.30
2018-12-26T21:28:01.829Z,7.30
2018-12-26T21:30:28.822Z,7.30
2018-12-26T21:32:55.726Z,7.30
2018-12-26T21:35:22.756Z,7.30
2018-12-26T21:37:49.603Z,7.30
2018-12-26T21:40:16.533Z,7.30
2018-12-26T21:42:43.351Z,7.30
2018-12-26T21:45:10.851Z,7.30
2018-12-26T21:47:37.862Z,7.30
2018-12-26T21:50:06.366Z,7.30
2018-12-26T21:52:33.189Z,7.30
2018-12-26T21:55:00.010Z,7.30
2018-12-26T21:57:26.792Z,7.30
2018-12-26T21:59:53.644Z,7.30
2018-12-26T22:02:22.563Z,7.30
2018-12-26T22:04:49.183Z,7.30
2018-12-26T22:07:16.001Z,7.30
2018-12-26T22:09:42.831Z,7.30
2018-12-26T22:12:09.628Z,7.30
2018-12-26T22:14:36.542Z,7.30
2018-12-26T22:17:03.410Z,7.40
2018-12-26T22:19:30.227Z,7.30
2018-12-26T22:21:57.054Z,7.40
2018-12-26T22:24:23.873Z,7.30
2018-12-26T22:26:50.678Z,7.30
2018-12-26T22:29:17.518Z,7.40
2018-12-26T22:31:44.360Z,7.40
2018-12-26T22:34:11.161Z,7.40
2018-12-26T22:36:38.147Z,7.30
2018-12-26T22:39:05.772Z,7.30
2018-12-26T22:41:32.561Z,7.30
2018-12-26T22:43:59.454Z,7.30
2018-12-26T22:46:26.246Z,7.30
2018-12-26T22:48:53.061Z,7.40
2018-12-26T22:51:19.913Z,7.40
2018-12-26T22:53:46.806Z,7.40
2018-12-26T22:56:13.614Z,7.40
2018-12-26T22:58:40.512Z,7.40
2018-12-26T23:01:07.453Z,7.40
2018-12-26T23:03:34.279Z,7.40
2018-12-26T23:06:01.240Z,7.40
2018-12-26T23:08:28.133Z,7.40
2018-12-26T23:10:54.942Z,7.40
2018-12-26T23:13:21.815Z,7.40
2018-12-26T23:15:50.481Z,7.40
2018-12-26T23:18:17.460Z,7.40
2018-12-26T23:20:44.420Z,7.40
2018-12-26T23:23:11.231Z,7.40
2018-12-26T23:25:38.040Z,7.40
2018-12-26T23:28:04.866Z,7.40
2018-12-26T23:30:31.659Z,7.40
2018-12-26T23:32:58.558Z,7.40
2018-12-26T23:35:25.435Z,7.40
2018-12-26T23:37:52.348Z,7.40
2018-12-26T23:40:19.166Z,7.40
2018-12-26T23:42:46.166Z,7.40
2018-12-26T23:45:13.199Z,7.40
2018-12-26T23:47:40.106Z,7.40
2018-12-26T23:50:07.170Z,7.40
2018-12-26T23:52:36.773Z,7.40
2018-12-26T23:55:04.362Z,7.40
2018-12-26T23:57:31.218Z,7.40
2018-12-26T23:59:58.023Z,7.40
